Hendricks, West Virginia
Current Conditions -  °F | °C
As of 3:51 AM on Saturday 29 Nov 2014 (Local Time) from KEKN Reporting Station
Overcast Overcast  
Wind Chill: 22°   Ceiling: 6500
Heat Index: 22°   Visibility: 9mi
Dew Point: 20°   Wind: 0mph
Humidity: 92%   Direction: NA
Pressure: 30.17"   Gusts: NA
Location:  39.08°N, 79.63°W
Report Text: KEKN 290851Z AUTO 00000KT 9SM OVC065 M06/M07 A3017 RMK AO2 SLP247 T10561067 50002 TSNO
Loading
Personal Weather Stations






























Interactive Weather Map New forecast layout! Learn more

10-Day Weather Forecast

Advertisements
Track Severe Weather on mobile